createdAt,value
2018-04-08T00:01:04.481Z,20.20
2018-04-08T00:03:32.112Z,24.63
2018-04-08T00:06:00.505Z,23.47
2018-04-08T00:08:28.884Z,26.87
2018-04-08T00:10:56.492Z,24.73
2018-04-08T00:13:24.107Z,17.90
2018-04-08T00:15:52.482Z,21.70
2018-04-08T00:18:20.068Z,18.50
2018-04-08T00:20:47.699Z,21.37
2018-04-08T00:23:16.100Z,19.73
2018-04-08T00:25:43.675Z,20.30
2018-04-08T00:28:12.235Z,22.30
2018-04-08T00:30:39.794Z,20.07
2018-04-08T00:33:07.391Z,21.17
2018-04-08T00:35:35.852Z,19.40
2018-04-08T00:38:03.427Z,22.43
2018-04-08T00:40:31.067Z,18.20
2018-04-08T00:42:58.678Z,19.50
2018-04-08T00:45:26.309Z,20.50
2018-04-08T00:47:53.916Z,18.83
2018-04-08T00:50:22.291Z,21.27
2018-04-08T00:52:50.671Z,19.77
2018-04-08T00:55:19.064Z,26.80
2018-04-08T00:57:46.710Z,28.00
2018-04-08T01:00:14.286Z,23.70
2018-04-08T01:02:41.898Z,20.27
2018-04-08T01:05:09.557Z,19.63
2018-04-08T01:07:37.136Z,21.03
2018-04-08T01:10:05.687Z,20.80
2018-04-08T01:12:33.249Z,23.10
2018-04-08T01:15:00.916Z,22.73
2018-04-08T01:17:28.473Z,24.73
2018-04-08T01:19:56.096Z,19.07
2018-04-08T01:22:23.712Z,18.47
2018-04-08T01:24:51.255Z,20.57
2018-04-08T01:27:18.830Z,25.13
2018-04-08T01:29:46.470Z,19.67
2018-04-08T01:32:14.063Z,22.17
2018-04-08T01:34:41.640Z,19.97
2018-04-08T01:37:09.970Z,20.37
2018-04-08T01:39:37.573Z,18.50
2018-04-08T01:42:05.952Z,21.53
2018-04-08T01:44:34.333Z,23.07
2018-04-08T01:47:02.690Z,24.73
2018-04-08T01:49:30.247Z,20.13
2018-04-08T01:51:57.871Z,20.60
2018-04-08T01:54:25.452Z,19.30
2018-04-08T01:56:53.108Z,18.40
2018-04-08T01:59:20.735Z,20.10
2018-04-08T02:01:48.331Z,20.83
2018-04-08T02:04:16.030Z,18.90
2018-04-08T02:06:44.440Z,18.73
2018-04-08T02:09:31.274Z,19.40
2018-04-08T02:11:58.831Z,19.50
2018-04-08T02:14:26.434Z,21.37
2018-04-08T02:16:54.082Z,17.93
2018-04-08T02:19:21.653Z,21.53
2018-04-08T02:21:49.272Z,22.70
2018-04-08T02:24:16.927Z,21.53
2018-04-08T02:26:44.537Z,21.70
2018-04-08T02:29:12.143Z,21.33
2018-04-08T02:31:39.747Z,19.00
2018-04-08T02:34:07.379Z,20.47
2018-04-08T02:36:35.245Z,20.97
2018-04-08T02:39:03.589Z,19.27
2018-04-08T02:41:31.181Z,20.50
2018-04-08T02:43:58.822Z,21.27
2018-04-08T02:46:26.473Z,20.43
2018-04-08T02:48:54.109Z,18.47
2018-04-08T02:51:21.757Z,24.90
2018-04-08T02:53:50.564Z,19.90
2018-04-08T02:56:18.172Z,22.70
2018-04-08T02:58:45.755Z,21.43
2018-04-08T03:01:13.325Z,23.43
2018-04-08T03:03:40.897Z,22.87
2018-04-08T03:06:08.518Z,21.50
2018-04-08T03:08:36.137Z,18.30
2018-04-08T03:11:04.499Z,19.90
2018-04-08T03:13:32.843Z,20.40
2018-04-08T03:16:00.459Z,22.87
2018-04-08T03:18:28.056Z,23.67
2018-04-08T03:20:55.654Z,26.37
2018-04-08T03:23:23.240Z,20.27
2018-04-08T03:25:50.840Z,23.03
2018-04-08T03:28:18.415Z,20.50
2018-04-08T03:30:46.060Z,20.23
2018-04-08T03:33:13.677Z,22.47
2018-04-08T03:35:41.287Z,20.90
2018-04-08T03:38:08.914Z,20.67
2018-04-08T03:40:36.490Z,28.07
2018-04-08T03:43:04.123Z,22.33
2018-04-08T03:45:31.714Z,21.63
2018-04-08T03:47:59.361Z,23.87
2018-04-08T03:50:26.997Z,19.87
2018-04-08T03:52:55.388Z,19.90
2018-04-08T03:55:23.031Z,20.50
2018-04-08T03:57:51.539Z,21.13
2018-04-08T04:00:19.167Z,23.50
2018-04-08T04:02:47.505Z,18.67
2018-04-08T04:05:15.130Z,23.27
2018-04-08T04:07:43.852Z,20.63
2018-04-08T04:10:11.455Z,22.20
2018-04-08T04:12:39.795Z,22.30
2018-04-08T04:15:07.409Z,22.00
2018-04-08T04:17:35.564Z,19.47
2018-04-08T04:20:15.905Z,18.97
2018-04-08T04:22:55.253Z,22.17
2018-04-08T04:28:31.103Z,23.57
2018-04-08T04:30:58.667Z,27.47
2018-04-08T04:33:26.263Z,24.27
2018-04-08T04:35:53.886Z,24.23
2018-04-08T04:38:21.462Z,21.90
2018-04-08T04:40:49.077Z,23.13
2018-04-08T04:43:16.697Z,19.77
2018-04-08T04:45:45.065Z,21.55
2018-04-08T04:48:13.450Z,26.57
2018-04-08T04:50:41.790Z,21.23
2018-04-08T04:53:09.382Z,21.70
2018-04-08T04:55:36.994Z,23.67
2018-04-08T04:58:04.655Z,24.20
2018-04-08T05:00:34.005Z,22.70
2018-04-08T05:03:02.395Z,22.92
2018-04-08T05:05:31.781Z,23.12
2018-04-08T05:08:00.166Z,23.83
2018-04-08T05:10:28.575Z,23.45
2018-04-08T05:12:56.193Z,19.75
2018-04-08T05:15:23.761Z,22.42
2018-04-08T05:17:52.105Z,29.33
2018-04-08T05:20:20.614Z,34.67
2018-04-08T05:22:48.192Z,26.52
2018-04-08T05:25:17.802Z,19.83
2018-04-08T05:33:33.846Z,20.40
2018-04-08T05:36:08.014Z,20.23
2018-04-08T05:38:35.616Z,23.30
2018-04-08T05:41:03.280Z,21.53
2018-04-08T05:43:38.167Z,25.70
2018-04-08T05:49:18.100Z,23.70
2018-04-08T05:51:45.651Z,26.47
2018-04-08T05:54:19.267Z,23.33
2018-04-08T06:02:44.751Z,22.13
2018-04-08T06:05:22.946Z,20.37
2018-04-08T06:13:36.451Z,18.67
2018-04-08T06:16:05.828Z,16.40
2018-04-08T06:18:33.458Z,24.53
2018-04-08T06:21:18.354Z,19.33
2018-04-08T06:23:53.470Z,19.53
2018-04-08T06:26:21.080Z,16.70
2018-04-08T06:28:49.412Z,18.23
2018-04-08T06:31:17.030Z,19.13
2018-04-08T06:33:44.971Z,21.40
2018-04-08T06:36:12.588Z,24.93
2018-04-08T06:38:40.233Z,17.87
2018-04-08T06:41:09.808Z,22.17
2018-04-08T06:43:38.217Z,18.10
2018-04-08T06:46:05.840Z,18.90
2018-04-08T06:48:38.919Z,20.60
2018-04-08T06:51:06.527Z,21.33
2018-04-08T06:53:34.143Z,18.27
2018-04-08T06:56:01.705Z,20.13
2018-04-08T06:58:29.312Z,21.07
2018-04-08T07:00:58.908Z,17.53
2018-04-08T07:03:26.540Z,17.03
2018-04-08T07:05:54.132Z,17.07
2018-04-08T07:08:22.985Z,17.60
2018-04-08T07:10:55.812Z,17.53
2018-04-08T07:13:26.520Z,17.70
2018-04-08T07:18:56.516Z,18.80
2018-04-08T07:24:33.603Z,18.67
2018-04-08T07:27:01.244Z,17.47
2018-04-08T07:29:28.836Z,15.43
2018-04-08T07:31:56.453Z,16.37
2018-04-08T07:34:24.038Z,16.33
2018-04-08T07:36:51.650Z,17.77
2018-04-08T07:39:19.248Z,16.90
2018-04-08T07:41:46.906Z,15.13
2018-04-08T07:44:14.485Z,15.63
2018-04-08T07:46:42.130Z,14.53
2018-04-08T07:49:09.687Z,16.73
2018-04-08T07:51:37.256Z,16.17
2018-04-08T07:54:04.921Z,14.47
2018-04-08T07:56:32.581Z,14.43
2018-04-08T07:59:00.132Z,13.43
2018-04-08T08:01:27.755Z,15.40
2018-04-08T08:03:55.400Z,14.47
2018-04-08T08:06:22.994Z,14.10
2018-04-08T08:08:51.372Z,12.30
2018-04-08T08:11:19.790Z,19.93
2018-04-08T08:13:47.975Z,13.13
2018-04-08T08:16:15.597Z,14.23
2018-04-08T08:18:43.299Z,14.57
2018-04-08T08:21:10.961Z,14.63
2018-04-08T08:23:39.027Z,14.20
2018-04-08T08:26:06.693Z,18.27
2018-04-08T08:28:34.352Z,13.93
2018-04-08T08:31:02.003Z,14.03
2018-04-08T08:33:29.665Z,13.57
2018-04-08T08:35:57.267Z,14.60
2018-04-08T08:38:25.241Z,17.37
2018-04-08T08:40:52.820Z,14.27
2018-04-08T08:43:22.052Z,14.27
2018-04-08T08:45:49.864Z,14.77
2018-04-08T08:48:17.486Z,13.50
2018-04-08T08:50:45.075Z,13.60
2018-04-08T08:53:12.733Z,14.87
2018-04-08T08:55:40.348Z,14.10
2018-04-08T08:58:08.009Z,13.20
2018-04-08T09:00:36.516Z,16.50
2018-04-08T09:03:05.111Z,19.40
2018-04-08T09:05:53.617Z,13.40
2018-04-08T09:08:21.293Z,18.37
2018-04-08T09:10:49.624Z,15.53
2018-04-08T09:13:30.340Z,16.50
2018-04-08T09:15:57.957Z,18.03
2018-04-08T09:18:25.680Z,15.33
2018-04-08T09:20:59.267Z,17.47
2018-04-08T09:26:35.431Z,14.90
2018-04-08T09:29:02.994Z,14.37
2018-04-08T09:31:30.522Z,18.67
2018-04-08T09:33:58.040Z,15.60
2018-04-08T09:36:25.643Z,19.10
2018-04-08T09:39:10.550Z,16.73
2018-04-08T09:41:38.087Z,18.87
2018-04-08T09:44:05.614Z,16.47
2018-04-08T09:46:33.153Z,18.83
2018-04-08T09:49:00.681Z,15.17
2018-04-08T09:51:29.074Z,15.27
2018-04-08T09:53:56.583Z,16.50
2018-04-08T09:56:24.888Z,18.10
2018-04-08T09:58:53.414Z,16.23
2018-04-08T10:01:26.521Z,18.50
2018-04-08T10:03:54.069Z,22.37
2018-04-08T10:06:21.668Z,19.10
2018-04-08T10:08:49.977Z,17.27
2018-04-08T10:11:17.535Z,17.97
2018-04-08T10:13:45.887Z,16.97
2018-04-08T10:16:13.430Z,18.67
2018-04-08T10:18:41.810Z,18.60
2018-04-08T10:21:10.134Z,18.00
2018-04-08T10:23:38.183Z,17.40
2018-04-08T10:26:06.715Z,18.93
2018-04-08T10:28:35.582Z,17.53
2018-04-08T10:31:03.183Z,18.93
2018-04-08T10:33:30.818Z,19.20
2018-04-08T10:35:58.421Z,21.10
2018-04-08T10:38:26.802Z,19.07
2018-04-08T10:40:54.419Z,19.30
2018-04-08T10:43:21.988Z,19.10
2018-04-08T10:45:49.637Z,20.57
2018-04-08T10:48:17.224Z,19.87
2018-04-08T10:50:45.665Z,17.90
2018-04-08T10:53:14.164Z,20.80
2018-04-08T10:55:41.798Z,19.10
2018-04-08T10:58:09.362Z,18.30
2018-04-08T11:00:36.980Z,19.57
2018-04-08T11:03:06.335Z,18.30
2018-04-08T11:05:33.910Z,17.10
2018-04-08T11:08:01.538Z,17.10
2018-04-08T11:10:29.138Z,19.43
2018-04-08T11:12:56.726Z,18.27
2018-04-08T11:15:25.049Z,22.83
2018-04-08T11:17:52.628Z,21.77
2018-04-08T11:20:20.265Z,20.00
2018-04-08T11:22:47.896Z,18.13
2018-04-08T11:25:15.502Z,18.77
2018-04-08T11:27:43.132Z,16.13
2018-04-08T11:30:10.705Z,15.23
2018-04-08T11:32:38.353Z,18.70
2018-04-08T11:35:20.572Z,18.93
2018-04-08T11:37:50.857Z,18.13
2018-04-08T11:40:19.272Z,17.60
2018-04-08T11:42:46.921Z,17.83
2018-04-08T11:45:14.516Z,16.50
2018-04-08T11:47:42.140Z,18.27
2018-04-08T11:50:21.482Z,19.03
2018-04-08T11:52:49.074Z,15.97
2018-04-08T11:55:16.676Z,19.40
2018-04-08T11:57:45.016Z,26.07
2018-04-08T12:00:12.620Z,19.03
2018-04-08T12:02:40.979Z,16.80
2018-04-08T12:05:08.560Z,17.97
2018-04-08T12:07:36.922Z,19.63
2018-04-08T12:10:05.376Z,17.67
2018-04-08T12:12:33.011Z,17.27
2018-04-08T12:15:00.733Z,19.70
2018-04-08T12:17:28.304Z,17.43
2018-04-08T12:19:56.036Z,19.17
2018-04-08T12:22:23.652Z,17.30
2018-04-08T12:24:51.282Z,18.10
2018-04-08T12:27:26.410Z,17.03
2018-04-08T12:29:54.050Z,18.43
2018-04-08T12:32:21.681Z,17.80
2018-04-08T12:35:10.231Z,15.77
2018-04-08T12:37:37.864Z,17.63
2018-04-08T12:40:06.248Z,17.67
2018-04-08T12:42:34.640Z,15.07
2018-04-08T12:45:03.032Z,17.53
2018-04-08T12:47:31.138Z,18.00
2018-04-08T12:49:58.761Z,18.17
2018-04-08T12:52:26.418Z,16.33
2018-04-08T12:54:54.099Z,18.23
2018-04-08T12:57:21.783Z,15.83
2018-04-08T12:59:49.375Z,15.70
2018-04-08T13:02:18.751Z,17.27
2018-04-08T13:07:32.956Z,17.37
2018-04-08T13:10:00.605Z,18.63
2018-04-08T13:12:28.238Z,15.03
2018-04-08T13:14:56.933Z,14.60
2018-04-08T13:17:42.812Z,14.80
2018-04-08T13:20:12.429Z,16.90
2018-04-08T13:22:40.067Z,15.77
2018-04-08T13:28:18.439Z,19.00
2018-04-08T13:30:48.785Z,17.37
2018-04-08T13:33:16.383Z,17.60
2018-04-08T13:35:44.035Z,16.27
2018-04-08T13:38:15.788Z,13.90
2018-04-08T13:40:43.381Z,16.60
2018-04-08T13:43:11.057Z,16.80
2018-04-08T13:45:38.678Z,15.83
2018-04-08T13:51:05.709Z,17.17
2018-04-08T13:56:37.654Z,12.60
2018-04-08T13:59:08.562Z,10.23
2018-04-08T14:01:36.195Z,12.60
2018-04-08T14:04:04.539Z,18.10
2018-04-08T14:06:47.601Z,12.17
2018-04-08T14:09:15.216Z,13.90
2018-04-08T14:11:53.324Z,14.50
2018-04-08T14:14:26.964Z,11.93
2018-04-08T14:17:18.884Z,14.23
2018-04-08T14:19:47.242Z,15.40
2018-04-08T14:22:14.863Z,15.80
2018-04-08T14:24:43.288Z,15.17
2018-04-08T14:27:10.872Z,14.03
2018-04-08T14:29:38.466Z,12.03
2018-04-08T14:32:06.159Z,13.27
2018-04-08T14:34:50.568Z,14.53
2018-04-08T14:37:18.195Z,11.53
2018-04-08T14:39:45.768Z,14.93
2018-04-08T14:42:13.334Z,15.30
2018-04-08T14:44:41.753Z,12.90
2018-04-08T14:47:09.333Z,11.07
2018-04-08T14:49:36.938Z,9.67
2018-04-08T14:52:04.548Z,13.37
2018-04-08T14:54:32.118Z,9.77
2018-04-08T14:56:59.747Z,10.93
2018-04-08T14:59:27.315Z,9.30
2018-04-08T15:01:54.939Z,10.23
2018-04-08T15:04:22.510Z,9.23
2018-04-08T15:06:50.112Z,10.20
2018-04-08T15:09:17.659Z,10.87
2018-04-08T15:11:45.285Z,8.47
2018-04-08T15:14:12.871Z,8.73
2018-04-08T15:16:40.458Z,8.67
2018-04-08T15:19:08.001Z,9.37
2018-04-08T15:21:35.604Z,7.30
2018-04-08T15:24:03.965Z,7.83
2018-04-08T15:26:31.612Z,8.30
2018-04-08T15:28:59.198Z,8.90
2018-04-08T15:31:40.847Z,10.97
2018-04-08T15:34:08.459Z,10.80
2018-04-08T15:36:36.806Z,8.93
2018-04-08T15:39:04.470Z,7.13
2018-04-08T15:41:32.030Z,7.83
2018-04-08T15:43:59.663Z,10.13
2018-04-08T15:46:29.195Z,9.47
2018-04-08T15:48:56.809Z,8.73
2018-04-08T15:51:24.438Z,9.00
2018-04-08T15:53:52.043Z,8.03
2018-04-08T15:56:19.666Z,9.40
2018-04-08T15:58:49.034Z,8.03
2018-04-08T16:01:16.591Z,9.77
2018-04-08T16:03:44.211Z,10.70
2018-04-08T16:06:11.795Z,8.00
2018-04-08T16:08:39.415Z,6.73
2018-04-08T16:11:07.099Z,9.03
2018-04-08T16:13:42.528Z,9.33
2018-04-08T16:16:34.691Z,8.47
2018-04-08T16:19:02.348Z,10.77
2018-04-08T16:21:29.894Z,11.50
2018-04-08T16:23:57.476Z,9.57
2018-04-08T16:26:25.102Z,10.60
2018-04-08T16:28:59.155Z,10.67
2018-04-08T16:31:26.784Z,11.37
2018-04-08T16:33:54.378Z,9.67
2018-04-08T16:36:22.003Z,9.17
2018-04-08T16:38:49.569Z,10.47
2018-04-08T16:41:17.255Z,9.83
2018-04-08T16:43:44.835Z,8.23
2018-04-08T16:46:12.469Z,8.23
2018-04-08T16:48:40.105Z,13.27
2018-04-08T16:51:07.665Z,14.20
2018-04-08T16:53:35.299Z,19.30
2018-04-08T16:56:03.636Z,14.40
2018-04-08T16:58:31.285Z,16.03
2018-04-08T17:00:58.872Z,14.40
2018-04-08T17:03:26.443Z,12.80
2018-04-08T17:05:54.012Z,13.30
2018-04-08T17:08:21.568Z,15.53
2018-04-08T17:10:49.159Z,15.30
2018-04-08T17:13:16.763Z,14.43
2018-04-08T17:15:44.415Z,13.70
2018-04-08T17:21:07.459Z,13.00
2018-04-08T17:23:35.917Z,15.70
2018-04-08T17:26:04.301Z,12.50
2018-04-08T17:28:44.177Z,14.70
2018-04-08T17:31:11.789Z,17.70
2018-04-08T17:33:41.303Z,17.80
2018-04-08T17:36:09.743Z,24.10
2018-04-08T17:38:37.375Z,17.83
2018-04-08T17:41:05.018Z,20.30
2018-04-08T17:43:33.430Z,17.83
2018-04-08T17:46:01.109Z,20.30
2018-04-08T17:48:28.752Z,12.23
2018-04-08T17:50:56.387Z,16.40
2018-04-08T17:56:23.941Z,18.87
2018-04-08T17:58:51.540Z,16.13
2018-04-08T18:01:19.137Z,16.20
2018-04-08T18:03:46.779Z,15.80
2018-04-08T18:06:14.423Z,15.70
2018-04-08T18:08:42.022Z,19.60
2018-04-08T18:11:09.584Z,13.97
2018-04-08T18:13:37.185Z,18.37
2018-04-08T18:16:04.806Z,18.70
2018-04-08T18:18:32.403Z,17.93
2018-04-08T18:21:08.437Z,21.73
2018-04-08T18:23:36.057Z,20.90
2018-04-08T18:26:04.415Z,19.10
2018-04-08T18:28:32.119Z,18.43
2018-04-08T18:30:59.777Z,15.30
2018-04-08T18:33:33.171Z,15.70
2018-04-08T18:36:00.765Z,15.80
2018-04-08T18:38:29.145Z,17.23
2018-04-08T18:41:02.847Z,17.43
2018-04-08T18:43:31.235Z,16.87
2018-04-08T18:46:07.953Z,15.23
2018-04-08T18:48:35.569Z,16.57
2018-04-08T18:51:03.196Z,13.77
2018-04-08T18:53:30.850Z,20.03
2018-04-08T18:55:58.433Z,16.97
2018-04-08T18:58:26.023Z,15.43
2018-04-08T19:00:55.351Z,18.60
2018-04-08T19:03:25.043Z,17.57
2018-04-08T19:05:52.690Z,19.97
2018-04-08T19:08:21.059Z,22.77
2018-04-08T19:10:49.448Z,19.10
2018-04-08T19:13:17.109Z,20.93
2018-04-08T19:15:44.735Z,22.37
2018-04-08T19:18:12.347Z,18.77
2018-04-08T19:20:44.956Z,27.40
2018-04-08T19:23:12.560Z,23.73
2018-04-08T19:25:40.958Z,24.63
2018-04-08T19:28:08.544Z,23.60
2018-04-08T19:30:40.821Z,19.53
2018-04-08T19:33:08.465Z,21.73
2018-04-08T19:35:36.100Z,24.50
2018-04-08T19:38:04.525Z,25.93
2018-04-08T19:40:32.198Z,24.80
2018-04-08T19:42:59.830Z,27.10
2018-04-08T19:45:50.786Z,21.90
2018-04-08T19:48:18.399Z,27.13
2018-04-08T19:50:46.074Z,28.90
2018-04-08T19:56:09.728Z,29.43
2018-04-08T19:58:37.312Z,23.43
2018-04-08T20:01:04.931Z,25.30
2018-04-08T20:03:33.418Z,31.03
2018-04-08T20:06:01.055Z,25.33
2018-04-08T20:17:10.157Z,22.50
2018-04-08T20:19:38.642Z,27.60
2018-04-08T20:22:07.115Z,25.70
2018-04-08T20:24:38.757Z,25.20
2018-04-08T20:27:06.405Z,25.33
2018-04-08T20:29:34.028Z,23.17
2018-04-08T20:32:01.642Z,28.40
2018-04-08T20:34:29.322Z,23.37
2018-04-08T20:36:57.719Z,28.40
2018-04-08T20:39:25.307Z,25.47
2018-04-08T20:41:52.948Z,26.40
2018-04-08T20:44:20.560Z,28.50
2018-04-08T20:46:48.239Z,23.27
2018-04-08T20:49:16.647Z,28.03
2018-04-08T20:51:44.323Z,21.70
2018-04-08T20:54:11.946Z,25.90
2018-04-08T20:56:40.330Z,26.03
2018-04-08T20:59:08.736Z,26.77
2018-04-08T21:01:36.343Z,25.40
2018-04-08T21:04:03.976Z,23.03
2018-04-08T21:06:31.528Z,28.60
2018-04-08T21:08:59.174Z,24.80
2018-04-08T21:11:26.786Z,23.63
2018-04-08T21:13:54.396Z,27.97
2018-04-08T21:16:21.977Z,26.90
2018-04-08T21:18:49.582Z,35.50
2018-04-08T21:21:17.156Z,22.87
2018-04-08T21:23:44.740Z,22.40
2018-04-08T21:26:12.352Z,24.10
2018-04-08T21:28:39.995Z,23.47
2018-04-08T21:31:07.571Z,23.70
2018-04-08T21:33:35.184Z,21.27
2018-04-08T21:36:02.776Z,23.93
2018-04-08T21:38:30.370Z,23.47
2018-04-08T21:40:58.715Z,22.07
2018-04-08T21:43:26.483Z,28.20
2018-04-08T21:45:54.114Z,22.40
2018-04-08T21:48:21.777Z,24.20
2018-04-08T21:50:49.378Z,24.43
2018-04-08T21:53:17.022Z,27.20
2018-04-08T21:55:44.674Z,21.17
2018-04-08T21:58:12.255Z,22.20
2018-04-08T22:00:39.908Z,23.30
2018-04-08T22:03:07.518Z,20.33
2018-04-08T22:05:35.151Z,22.40
2018-04-08T22:08:02.771Z,24.23
2018-04-08T22:10:30.368Z,23.03
2018-04-08T22:12:58.044Z,23.00
2018-04-08T22:15:26.410Z,25.03
2018-04-08T22:17:53.987Z,25.80
2018-04-08T22:20:22.360Z,30.43
2018-04-08T22:22:50.843Z,21.70
2018-04-08T22:25:19.248Z,24.47
2018-04-08T22:27:46.878Z,26.43
2018-04-08T22:30:31.957Z,20.30
2018-04-08T22:33:00.314Z,23.67
2018-04-08T22:35:28.717Z,22.40
2018-04-08T22:37:57.094Z,22.43
2018-04-08T22:40:25.493Z,23.10
2018-04-08T22:42:53.145Z,23.40
2018-04-08T22:45:20.702Z,28.00
2018-04-08T22:47:48.351Z,23.20
2018-04-08T22:50:16.708Z,22.93
2018-04-08T22:52:44.290Z,24.50
2018-04-08T22:55:12.676Z,23.60
2018-04-08T22:57:40.263Z,23.00
2018-04-08T23:00:07.862Z,28.13
2018-04-08T23:02:35.491Z,22.10
2018-04-08T23:05:03.075Z,23.87
2018-04-08T23:07:30.646Z,24.00
2018-04-08T23:09:58.273Z,23.33
2018-04-08T23:12:25.830Z,23.23
2018-04-08T23:14:53.417Z,27.53
2018-04-08T23:17:21.039Z,22.13
2018-04-08T23:19:48.635Z,24.83
2018-04-08T23:22:16.240Z,25.17
2018-04-08T23:24:43.902Z,20.80
2018-04-08T23:27:11.488Z,22.83
2018-04-08T23:29:39.098Z,23.53
2018-04-08T23:32:06.772Z,26.70
2018-04-08T23:34:35.212Z,25.80
2018-04-08T23:37:02.844Z,26.97
2018-04-08T23:39:30.436Z,22.97
2018-04-08T23:41:58.039Z,24.33
2018-04-08T23:44:26.375Z,27.27
2018-04-08T23:46:54.009Z,25.90
2018-04-08T23:49:21.595Z,23.50
2018-04-08T23:51:49.199Z,31.33
2018-04-08T23:54:17.559Z,23.57
2018-04-08T23:56:45.208Z,23.47
2018-04-08T23:59:12.885Z,28.53
